Flight Track Log - Related Links

Times and Time Zones

All times are in EDT time to prevent confusion due to time zone crossing. See the THY789 flight status page for this flight to view local times or setup timezone preferences in your user account.

Time Position Orientation Groundspeed Altitude Reporting Facility
EDT Latitude Longitude Course Direction KTS MPH feet Rate Location/Type
Sat 02:37:26 PM 31.9720 34.8570 269° West 183 211 5,100  Level FlightAware ADS-B
Sat 02:37:51 PM 31.9710 34.8360 267° West 183 211 5,100 1,585 Level FlightAware ADS-B
Sat 02:38:57 PM 32.0020 34.7390 291° West 6,900 1,670 Climbing FlightAware ADS-B
Sat 02:41:00 PM 32.1650 34.6442 334° Northwest  Level Estimated
Sat 02:42:00 PM 32.2445 34.5979 334° Northwest  Level Estimated
Sat 02:43:00 PM 32.3239 34.5514 334° Northwest  Level Estimated
Sat 02:44:00 PM 32.4034 34.5049 334° Northwest  Level Estimated
Sat 02:45:00 PM 32.4828 34.4583 334° Northwest  Level Estimated
Sat 02:45:38 PM 32.1530 34.0140 334° Northwest 392 451 18,100  Level FlightAware ADS-B
Sat 02:46:10 PM 32.1800 33.9550 298° West 391 450 19,000 1,333 Climbing FlightAware ADS-B
Sat 02:46:50 PM 32.2160 33.8810 300° West 400 460 19,700 1,129 Climbing FlightAware ADS-B
Sat 02:47:35 PM 32.2580 33.7930 299° West 407 468 20,600 1,259 Climbing FlightAware ADS-B
Sat 02:48:11 PM 32.2900 33.7250 299° West 411 473 21,400 1,263 Climbing FlightAware ADS-B
Sat 02:48:51 PM 32.3280 33.6440 299° West 416 479 22,200 1,116 Climbing FlightAware ADS-B
Sat 02:49:37 PM 32.3730 33.5510 300° West 427 491 23,000 1,111 Climbing FlightAware ADS-B
Sat 02:50:12 PM 32.4220 33.4930 315° West 434 499 23,700 960 Climbing FlightAware ADS-B
Sat 02:50:52 PM 32.4820 33.4240 316° Northwest 445 512 24,200 818 Climbing FlightAware ADS-B
Sat 02:51:18 PM 32.5190 33.3810 316° Northwest 448 516 24,600 1,031 Climbing FlightAware ADS-B
Sat 02:51:56 PM 32.5760 33.3160 316° Northwest 451 519 25,300 1,169 Climbing FlightAware ADS-B
Sat 02:52:35 PM 32.6330 33.2510 316° Northwest 449 517 26,100 1,071 Climbing FlightAware ADS-B
Sat 02:53:20 PM 32.7030 33.1700 316° Northwest 455 524 26,800 815 Climbing FlightAware ADS-B
Sat 02:53:56 PM 32.7570 33.1070 316° Northwest 461 531 27,200 723 Climbing FlightAware ADS-B
Sat 02:54:43 PM 32.8280 33.0250 316° Northwest 467 537 27,800 757 Climbing FlightAware ADS-B
Sat 02:55:39 PM 32.9130 32.9260 316° Northwest 469 540 28,500 758 Climbing FlightAware ADS-B
Sat 02:56:18 PM 32.9740 32.8550 316° Northwest 473 544 29,000 1,067 Climbing FlightAware ADS-B
Sat 02:57:09 PM 33.0530 32.7630 316° Northwest 461 531 30,100 1,226 Climbing FlightAware ADS-B
Sat 02:57:51 PM 33.1170 32.6880 316° Northwest 460 529 30,900 1,059 Climbing FlightAware ADS-B
Sat 02:58:34 PM 33.1840 32.6100 316° Northwest 458 527 31,600 987 Climbing FlightAware ADS-B
Sat 02:59:10 PM 33.2360 32.5480 315° West 454 522 32,200 960 Climbing FlightAware ADS-B
Sat 02:59:49 PM 33.2950 32.4790 316° Northwest 452 520 32,800 857 Climbing FlightAware ADS-B
Sat 03:00:34 PM 33.3630 32.3990 316° Northwest 451 519 33,400 776 Climbing FlightAware ADS-B
Sat 03:01:14 PM 33.4230 32.3280 315° West 450 518 33,900 450 Climbing FlightAware ADS-B
Sat 03:01:54 PM 33.4810 32.2590 315° West 453 521 34,000 70 Climbing FlightAware ADS-B
Sat 03:02:40 PM 33.5480 32.1790 315° West 451 519 34,000  Level FlightAware ADS-B
Sat 03:03:19 PM 33.6070 32.1090 315° West 451 519 34,000  Level FlightAware ADS-B
Sat 03:04:10 PM 33.6830 32.0190 315° West 451 519 34,000  Level FlightAware ADS-B
Sat 03:04:55 PM 33.7470 31.9420 315° West 451 519 34,000  Level FlightAware ADS-B
Sat 03:05:35 PM 33.8080 31.8680 315° West 451 519 34,000  Level FlightAware ADS-B
Sat 03:06:16 PM 33.8680 31.7960 315° West 451 519 34,000  Level FlightAware ADS-B
Sat 03:06:55 PM 33.9260 31.7260 315° West 451 519 34,000  Level FlightAware ADS-B
Sat 03:07:41 PM 33.9950 31.6440 315° West 445 512 34,000  Level FlightAware ADS-B
Sat 03:08:21 PM 34.0540 31.5720 315° West 445 512 34,000  Level FlightAware ADS-B
Sat 03:09:02 PM 34.1130 31.5000 315° West 445 512 34,000  Level FlightAware ADS-B
Sat 03:09:37 PM 34.1650 31.4380 315° West 444 511 34,000  Level FlightAware ADS-B
Sat 03:10:23 PM 34.2310 31.3560 314° West 445 512 34,000  Level FlightAware ADS-B
Sat 03:11:31 PM 34.3280 31.2380 315° West 444 511 34,000  Level FlightAware ADS-B
Sat 03:12:15 PM 34.3960 31.1560 315° West 442 509 34,000  Level FlightAware ADS-B
Sat 03:12:54 PM 34.4530 31.0860 315° West 448 516 34,000  Level FlightAware ADS-B
Sat 03:13:40 PM 34.5280 31.0120 321° Northwest 453 521 34,000  Level FlightAware ADS-B
Sat 03:14:19 PM 34.5970 30.9610 329° Northwest 457 526 34,000  Level FlightAware ADS-B
Sat 03:15:00 PM 34.6760 30.9200 337° Northwest 462 532 34,000  Level FlightAware ADS-B
Sat 03:15:45 PM 34.7740 30.8890 345° North 469 540 34,000  Level FlightAware ADS-B
Sat 03:16:30 PM 34.8700 30.8830 357° North 467 537 34,000  Level FlightAware ADS-B
Sat 03:17:11 PM 34.9580 30.8780 357° North 467 537 34,000  Level FlightAware ADS-B
Sat 03:17:51 PM 35.0440 30.8740 358° North 468 539 34,000  Level FlightAware ADS-B
Sat 03:18:32 PM 35.1390 30.8690 358° North 469 540 34,000  Level FlightAware ADS-B
Sat 03:19:17 PM 35.2400 30.8640 358° North 469 540 34,000  Level FlightAware ADS-B
Sat 03:19:58 PM 35.3270 30.8600 358° North 470 541 34,000  Level FlightAware ADS-B
Sat 03:20:38 PM 35.4180 30.8560 358° North 470 541 34,000  Level FlightAware ADS-B
Sat 03:21:24 PM 35.5170 30.8510 358° North 469 540 34,000  Level FlightAware ADS-B
Sat 03:22:00 PM 35.5980 30.8470 358° North 469 540 34,000  Level FlightAware ADS-B
Sat 03:22:39 PM 35.6850 30.8420 357° North 468 539 34,000  Level FlightAware ADS-B
Sat 03:23:20 PM 35.7720 30.8380 358° North 467 537 34,000  Level FlightAware ADS-B
Sat 03:24:00 PM 35.8640 30.8330 357° North 467 537 34,000  Level FlightAware ADS-B
Sat 03:24:41 PM 35.9440 30.8290 358° North 467 537 34,000  Level FlightAware ADS-B
Sat 03:25:20 PM 36.0430 30.8240 358° North 468 539 34,000  Level FlightAware ADS-B
Sat 03:26:01 PM 36.1280 30.8210 358° North 479 551 34,000  Level FlightAware ADS-B
Sat 03:26:41 PM 36.2190 30.8190 359° North 480 552 34,000  Level FlightAware ADS-B
Sat 03:27:28 PM 36.3240 30.8150 358° North 483 556 34,000  Level FlightAware ADS-B
Sat 03:28:03 PM 36.3970 30.8130 359° North 484 557 34,000  Level FlightAware ADS-B
Sat 03:28:48 PM 36.4950 30.8090 358° North 485 558 34,000  Level FlightAware ADS-B
Sat 03:29:33 PM 36.6030 30.8060 359° North 484 557 34,000  Level FlightAware ADS-B
Sat 03:30:18 PM 36.7050 30.8020 358° North 484 557 34,000  Level FlightAware ADS-B
Sat 03:30:58 PM 36.7860 30.7990 358° North 484 557 34,000  Level FlightAware ADS-B
Sat 03:31:39 PM 36.8850 30.7960 359° North 485 558 34,000  Level FlightAware ADS-B
Sat 03:32:18 PM 36.9740 30.7880 356° North 481 554 34,000  Level FlightAware ADS-B
Sat 03:32:58 PM 37.0600 30.7770 354° North 482 555 34,000  Level FlightAware ADS-B
Sat 03:33:43 PM 37.1620 30.7650 355° North 484 557 34,000  Level FlightAware ADS-B
Sat 03:34:23 PM 37.2500 30.7540 354° North 484 557 34,000  Level FlightAware ADS-B
Sat 03:35:03 PM 37.3370 30.7240 345° North 467 537 34,000  Level FlightAware ADS-B
Sat 03:35:49 PM 37.4260 30.6830 340° North 459 528 34,000  Level FlightAware ADS-B
Sat 03:36:33 PM 37.5190 30.6420 341° North 464 534 34,000  Level FlightAware ADS-B
Sat 03:37:13 PM 37.5980 30.6060 340° North 461 531 34,000  Level FlightAware ADS-B
Sat 03:37:58 PM 37.6900 30.5650 341° North 458 527 34,000  Level FlightAware ADS-B
Sat 03:38:38 PM 37.7630 30.5320 340° North 449 517 34,000  Level FlightAware ADS-B
Sat 03:39:33 PM 37.8640 30.4850 340° North 448 516 34,000  Level FlightAware ADS-B
Sat 03:40:12 PM 37.9540 30.4450 341° North 452 520 34,000  Level FlightAware ADS-B
Sat 03:40:51 PM 38.0320 30.4100 341° North 453 521 34,000  Level FlightAware ADS-B
Sat 03:41:41 PM 38.1300 30.3650 340° North 34,000  Level FlightAware ADS-B
Sat 03:42:24 PM 38.2130 30.3270 340° North 459 528 34,000  Level FlightAware ADS-B
Sat 03:43:01 PM 38.2840 30.2950 341° North 459 528 34,000  Level FlightAware ADS-B
Sat 03:43:47 PM 38.3840 30.2480 340° North 465 535 34,000  Level FlightAware ADS-B
Sat 03:44:24 PM 38.4480 30.2190 340° North 465 535 34,000  Level FlightAware ADS-B
Sat 03:45:12 PM 38.5300 30.1800 340° North 465 535 34,000  Level FlightAware ADS-B
Sat 03:45:48 PM 38.5920 30.1520 341° North 465 535 34,000  Level FlightAware ADS-B
Sat 03:46:36 PM 38.6750 30.1130 340° North 465 535 34,000  Level FlightAware ADS-B
Sat 03:47:40 PM 38.8450 30.0330 340° North 466 536 34,000  Level FlightAware ADS-B
Sat 03:48:21 PM 38.9400 29.9900 341° North 466 536 34,000  Level FlightAware ADS-B
Sat 03:49:02 PM 39.0150 29.9540 340° North 465 535 34,000 -209 Level FlightAware ADS-B
Sat 03:49:47 PM 39.1140 29.9080 340° North 464 534 33,700 -635 Descending FlightAware ADS-B
Sat 03:50:27 PM 39.1980 29.8690 340° North 467 537 33,100 -929 Descending FlightAware ADS-B
Sat 03:51:11 PM 39.2860 29.8280 340° North 460 529 32,400 -706 Descending FlightAware ADS-B
Sat 03:51:52 PM 39.3590 29.7920 339° North 461 531 32,100 -234 Descending FlightAware ADS-B
Sat 03:52:28 PM 39.4200 29.7620 339° North 461 531 32,100 -880 Level FlightAware ADS-B
Sat 03:53:07 PM 39.5040 29.7240 341° North 414 476 31,000 -1,367 Descending FlightAware ADS-B
Sat 03:53:47 PM 39.5780 29.6890 340° North 394 453 30,300 -943 Descending FlightAware ADS-B
Sat 03:54:17 PM 39.6270 29.6650 339° North 391 450 29,900 -1,200 Descending FlightAware ADS-B
Sat 03:55:07 PM 39.7110 29.6250 340° North 383 441 28,700 -1,600 Descending FlightAware ADS-B
Sat 03:55:47 PM 39.7820 29.5910 340° North 377 434 27,500 -1,125 Descending FlightAware ADS-B
Sat 03:56:27 PM 39.8350 29.5650 339° North 376 433 27,200 -1,650 Descending FlightAware ADS-B
Sat 03:57:07 PM 39.9100 29.5290 340° North 363 418 25,300 -2,100 Descending FlightAware ADS-B
Sat 03:57:47 PM 39.9740 29.4980 340° North 360 414 24,400 -975 Descending FlightAware ADS-B
Sat 03:58:27 PM 40.0320 29.4700 340° North 330 380 24,000 -741 Descending FlightAware ADS-B
Sat 03:59:08 PM 40.0870 29.4440 340° North 323 372 23,400 -988 Descending FlightAware ADS-B
Sat 03:59:52 PM 40.1530 29.4110 339° North 326 375 22,600 -1,214 Descending FlightAware ADS-B
Sat 04:00:32 PM 40.2110 29.3830 340° North 310 357 21,700 -1,185 Descending FlightAware ADS-B
Sat 04:01:13 PM 40.2590 29.3600 340° North 307 353 21,000 -1,360 Descending FlightAware ADS-B
Sat 04:01:47 PM 40.3100 29.3350 340° North 308 354 20,000 -1,500 Descending FlightAware ADS-B
Sat 04:02:37 PM 40.3710 29.2940 333° Northwest 290 334 18,900 -1,341 Descending FlightAware ADS-B
Sat 04:03:12 PM 40.4110 29.2610 328° Northwest 289 333 18,100 -1,425 Descending FlightAware ADS-B
Sat 04:03:57 PM 40.4620 29.2180 327° Northwest 287 330 17,000 -1,412 Descending FlightAware ADS-B
Sat 04:04:37 PM 40.5090 29.1800 328° Northwest 283 326 16,100 -1,200 Descending FlightAware ADS-B
Sat 04:05:22 PM 40.5590 29.1400 329° Northwest 270 311 15,300 -1,067 Descending FlightAware ADS-B
Sat 04:06:07 PM 40.6100 29.1000 329° Northwest 263 303 14,500 -933 Descending FlightAware ADS-B
Sat 04:06:52 PM 40.6560 29.0630 329° Northwest 267 307 13,900 -733 Descending FlightAware ADS-B
Sat 04:07:37 PM 40.7060 29.0240 329° Northwest 267 307 13,400 -1,000 Descending FlightAware ADS-B
Sat 04:08:22 PM 40.7520 28.9860 328° Northwest 264 304 12,400 -1,267 Descending FlightAware ADS-B
Sat 04:09:07 PM 40.7980 28.9490 329° Northwest 269 310 11,500 -1,037 Descending FlightAware ADS-B
Sat 04:09:43 PM 40.8340 28.9210 330° Northwest 252 290 11,000 -738 Descending FlightAware ADS-B
Sat 04:10:12 PM 40.8630 28.8940 325° Northwest 259 298 10,700 -508 Descending FlightAware ADS-B
Sat 04:10:42 PM 40.8680 28.8510 279° West 257 296 10,500 -400 Descending FlightAware ADS-B
Sat 04:10:57 PM 40.8550 28.8240 238° Southwest 262 302 10,400 -545 Descending FlightAware ADS-B
Sat 04:11:37 PM 40.8290 28.7700 238° Southwest 257 296 10,000 -279 Descending FlightAware ADS-B
Sat 04:12:23 PM 40.8020 28.7110 239° Southwest 258 297 10,000  Level FlightAware ADS-B
Sat 04:12:57 PM 40.7780 28.6600 238° Southwest 258 297 10,000  Level FlightAware ADS-B
Sat 04:13:32 PM 40.7560 28.6130 238° Southwest 257 296 10,000  Level FlightAware ADS-B
Sat 04:14:19 PM 40.7280 28.5520 239° Southwest 257 296 10,000  Level FlightAware ADS-B
Sat 04:14:49 PM 40.7090 28.5100 239° Southwest 256 295 10,000 -82 Level FlightAware ADS-B
Sat 04:15:32 PM 40.6870 28.4600 240° Southwest 256 295 9,900 -811 Descending FlightAware ADS-B
Sat 04:16:03 PM 40.6630 28.4120 237° Southwest 255 293 9,000 -1,200 Descending FlightAware ADS-B
Sat 04:16:27 PM 40.6480 28.3790 239° Southwest 252 290 8,800 -615 Descending FlightAware ADS-B
Sat 04:16:42 PM 40.6370 28.3570 237° Southwest 251 289 8,600 -732 Descending FlightAware ADS-B
Sat 04:17:08 PM 40.6220 28.3250 238° Southwest 252 290 8,300 -720 Descending FlightAware ADS-B
Sat 04:17:32 PM 40.6060 28.2900 239° Southwest 256 295 8,000 -735 Descending FlightAware ADS-B
Sat 04:17:57 PM 40.5910 28.2600 237° Southwest 254 292 7,700 -600 Descending FlightAware ADS-B
Sat 04:18:42 PM 40.5630 28.2000 238° Southwest 257 296 7,300 -429 Descending FlightAware ADS-B
Sat 04:18:53 PM 40.5600 28.1830 257° West 251 289 7,300 -240 Level FlightAware ADS-B
Sat 04:19:07 PM 40.5630 28.1620 281° West 237 273 7,200 -414 Descending FlightAware ADS-B
Sat 04:19:22 PM 40.5720 28.1480 310° West 219 252 7,100 -333 Descending FlightAware ADS-B
Sat 04:19:43 PM 40.5900 28.1290 321° Northwest 207 238 7,000 -600 Descending FlightAware ADS-B
Sat 04:20:02 PM 40.6040 28.1150 323° Northwest 203 234 6,700 -1,000 Descending FlightAware ADS-B
Sat 04:20:07 PM 40.6090 28.1120 336° Northwest 207 238 6,600 -900 Descending FlightAware ADS-B
Sat 04:20:22 PM 40.6220 28.1120 360° North 194 223 6,400 -652 Descending FlightAware ADS-B
Sat 04:20:53 PM 40.6460 28.1300 30° Northeast 205 236 6,100 -686 Descending FlightAware ADS-B
Sat 04:21:32 PM 40.6690 28.1760 57° Northeast 213 245 5,600 -738 Descending FlightAware ADS-B
Sat 04:21:58 PM 40.6800 28.1990 58° Northeast 205 236 5,300 -700 Descending FlightAware ADS-B
Sat 04:22:32 PM 40.6980 28.2390 59° Northeast 208 239 4,900 -700 Descending FlightAware ADS-B
Sat 04:22:58 PM 40.7110 28.2650 57° Northeast 203 234 4,600 -588 Descending FlightAware ADS-B
Sat 04:23:23 PM 40.7220 28.2900 60° Northeast 200 230 4,400 -600 Descending FlightAware ADS-B
Sat 04:24:08 PM 40.7460 28.3400 58° Northeast 194 223 3,900 -610 Descending FlightAware ADS-B
Sat 04:24:22 PM 40.7540 28.3570 58° Northeast 192 221 3,800 -462 Descending FlightAware ADS-B
Sat 04:24:47 PM 40.7650 28.3800 58° Northeast 182 209 3,600 -536 Descending FlightAware ADS-B
Sat 04:25:18 PM 40.7780 28.4080 58° Northeast 166 191 3,300 -533 Descending FlightAware ADS-B
Sat 04:25:32 PM 40.7840 28.4210 59° Northeast 166 191 3,200 -308 Descending FlightAware ADS-B
Sat 04:25:57 PM 40.7940 28.4430 59° Northeast 167 192 3,100 -218 Descending FlightAware ADS-B
Sat 04:26:27 PM 40.8050 28.4660 58° Northeast 166 191 3,000 -107 Descending FlightAware ADS-B
Sat 04:26:53 PM 40.8180 28.4920 57° Northeast 167 192 3,000  Level FlightAware ADS-B
Sat 04:27:17 PM 40.8280 28.5140 59° Northeast 167 192 3,000  Level FlightAware ADS-B
Sat 04:27:48 PM 40.8400 28.5400 59° Northeast 167 192 3,000  Level FlightAware ADS-B
Sat 04:28:08 PM 40.8470 28.5550 58° Northeast 168 193 3,000  Level FlightAware ADS-B
Sat 04:28:32 PM 40.8570 28.5770 59° Northeast 168 193 3,000  Level FlightAware ADS-B
Sat 04:28:57 PM 40.8700 28.6040 58° Northeast 169 194 3,000  Level FlightAware ADS-B
Sat 04:29:24 PM 40.8800 28.6260 59° Northeast 170 196 3,000 -120 Level FlightAware ADS-B
Sat 04:29:47 PM 40.8910 28.6490 58° Northeast 169 194 2,900 -679 Descending FlightAware ADS-B
Sat 04:30:17 PM 40.9020 28.6730 59° Northeast 163 188 2,400 -900 Descending FlightAware ADS-B
Sat 04:30:47 PM 40.9140 28.6980 58° Northeast 154 177 2,000 -800 Descending FlightAware ADS-B
Sat 04:31:17 PM 40.9260 28.7250 60° Northeast 152 175 1,600 -771 Descending FlightAware ADS-B
Sat 04:31:57 PM 40.9400 28.7540 57° Northeast 143 165 1,100 -738 Descending FlightAware ADS-B
Sat 04:32:22 PM 40.9480 28.7720 60° Northeast 138 159 800 -764 Descending FlightAware ADS-B
Sat 04:32:52 PM 40.9580 28.7930 58° Northeast 137 158 400 -750 Descending FlightAware ADS-B
Sat 04:33:02 PM 40.9620 28.8020 60° Northeast 138 159 300 -600 Descending FlightAware ADS-B
Sat 04:33:48 PM 40.9740 28.8280 59° Northeast 46 53 -391 Descending FlightAware ADS-B
Sat 04:36:00 PM 40.9769 28.8211 299° West  Level Estimated

Login

Don't have an account? Register now (free) for customized features, flight alerts, and more!